Meteo Giornale » Osservazioni meteo Italia » Brescia-Ghedi

ore: 18:55 - Osservazioni Meteo Brescia-Ghedi
Lat. 45° 25' N Lon. 10° 17' E Alt. 102 metri s.l.m.

sereno Europe/Rome

4 °C

Sereno

Temp. 24 Ore

1 °C

10 °C

Nord

1.8 Km/h

Dew point 2 °C

Umidità 86 %

Visibilità  8 Km

Il sole sorge alle ore 07:28

Il sole tramonta alle ore 16:42

Data e Ora Cielo e Fenomeni T °C DP °C Um. % Pres. hPa Vis. km Vento km/h
Oggi h: 18:55 sereno Sereno 4 2 86 1025 8 N 1.8
Oggi h: 17:55 sereno Sereno 5 1 75 1025 8 N 3.7
Oggi h: 15:55 sereno Sereno 9 2 61 1025 10 N 1.8
Oggi h: 14:55 sereno Sereno 10 1 53 1025 10 N 5.5
Oggi h: 13:55 sereno Sereno 10 2 57 1025 10 N 5.5
Oggi h: 12:55 sereno Sereno 8 3 70 1027 10 N 5.5
Oggi h: 11:55 sereno Sereno 8 3 70 1027 10 N 5.5
Oggi h: 10:55 sereno Sereno 6 3 81 1027 6 N 3.7
Oggi h: 08:55 foschia Foschia 1 0 93 1026 5 N 5.5
Oggi h: 07:55 foschia Foschia 1 1 100 1027 5 N 3.7
Oggi h: 07:18 foschia Foschia 1 1 100 1027 4 N 1.8
Oggi h: 06:55 foschia Foschia 2 1 93 1027 5 N 5.5
Oggi h: 05:55 sereno Sereno 2 1 93 1027 6 N 5.5
Oggi h: 04:55 sereno Sereno 3 2 93 1027 6 N 5.5
Oggi h: 03:55 sereno Sereno 3 3 100 1027 6 N 3.7
Oggi h: 02:55 sereno Sereno 3 3 100 1027 6 N 3.7
Oggi h: 01:55 sereno Sereno 3 3 100 1027 6 N 3.7
Oggi h: 00:55 sereno Sereno 4 3 93 1027 6 N 3.7
Ieri h: 22:55 sereno Sereno 5 3 86 1028 6 N/NO 7.4
Ieri h: 21:55 sereno Sereno 5 4 93 1028 6 NE 7.4
Ieri h: 20:55 sereno Sereno 6 3 81 1027 6 N 3.7
Ieri h: 19:55 sereno Sereno 5 3 86 1027 6 E/NE 9.3
Ieri h: 18:55 sereno Sereno 6 3 81 1027 6 E/NE 7.4